createdAt,value
2022-10-25T00:00:36.363Z,82.41
2022-10-25T00:03:24.292Z,82.55
2022-10-25T00:05:52.377Z,82.77
2022-10-25T00:08:20.334Z,82.72
2022-10-25T00:11:08.083Z,82.52
2022-10-25T00:13:36.277Z,82.44
2022-10-25T00:16:04.676Z,82.46
2022-10-25T00:18:33.717Z,82.39
2022-10-25T00:21:04.869Z,82.50
2022-10-25T00:23:33.139Z,82.56
2022-10-25T00:26:02.951Z,82.67
2022-10-25T00:28:31.146Z,82.61
2022-10-25T00:31:07.333Z,82.50
2022-10-25T00:33:37.004Z,82.35
2022-10-25T00:36:07.732Z,82.39
2022-10-25T00:38:36.425Z,82.57
2022-10-25T00:41:05.468Z,82.80
2022-10-25T00:43:55.709Z,82.79
2022-10-25T00:46:31.011Z,82.56
2022-10-25T00:49:18.799Z,82.89
2022-10-25T00:51:50.340Z,82.93
2022-10-25T00:57:01.929Z,83.01
2022-10-25T00:59:30.017Z,82.81
2022-10-25T01:01:58.464Z,83.06
2022-10-25T01:04:29.124Z,83.23
2022-10-25T01:06:58.026Z,83.09
2022-10-25T01:09:32.057Z,83.06
2022-10-25T01:12:01.126Z,83.06
2022-10-25T01:14:32.610Z,83.03
2022-10-25T01:17:22.048Z,83.12
2022-10-25T01:20:11.899Z,83.57
2022-10-25T01:22:53.733Z,83.71
2022-10-25T01:26:03.106Z,84.06
2022-10-25T01:28:40.156Z,83.83
2022-10-25T01:31:32.915Z,83.51
2022-10-25T01:34:06.917Z,83.49
2022-10-25T01:36:50.047Z,83.74
2022-10-25T01:39:26.306Z,83.54
2022-10-25T01:42:37.993Z,83.31
2022-10-25T01:45:27.988Z,83.16
2022-10-25T01:48:36.522Z,83.01
2022-10-25T01:51:10.316Z,82.78
2022-10-25T01:53:46.384Z,82.59
2022-10-25T01:56:38.524Z,82.52
2022-10-25T01:59:18.896Z,82.61
2022-10-25T02:02:08.858Z,82.54
2022-10-25T02:05:01.547Z,82.56
2022-10-25T02:07:38.895Z,82.40
2022-10-25T02:10:15.973Z,82.53
2022-10-25T02:12:56.944Z,82.48
2022-10-25T02:15:38.738Z,82.33
2022-10-25T02:18:16.232Z,82.22
2022-10-25T02:20:46.934Z,82.21
2022-10-25T02:23:18.014Z,82.39
2022-10-25T02:25:48.105Z,82.66
2022-10-25T02:28:19.585Z,82.65
2022-10-25T02:30:50.115Z,82.48
2022-10-25T02:33:18.085Z,82.30
2022-10-25T02:36:05.300Z,82.40
2022-10-25T02:38:34.620Z,82.42
2022-10-25T02:41:04.829Z,82.47
2022-10-25T02:43:33.013Z,81.99
2022-10-25T02:46:09.471Z,81.42
2022-10-25T02:48:38.468Z,81.00
2022-10-25T02:51:07.864Z,80.68
2022-10-25T02:53:35.831Z,80.41
2022-10-25T02:56:11.117Z,80.17
2022-10-25T02:58:41.300Z,80.02
2022-10-25T03:01:09.685Z,79.77
2022-10-25T03:03:38.257Z,79.70
2022-10-25T03:06:07.150Z,79.81
2022-10-25T03:08:35.229Z,79.77
2022-10-25T03:11:04.325Z,79.64
2022-10-25T03:13:32.491Z,79.60
2022-10-25T03:16:00.491Z,79.64
2022-10-25T03:18:28.648Z,79.68
2022-10-25T03:20:58.227Z,79.70
2022-10-25T03:23:27.344Z,79.95
2022-10-25T03:25:57.460Z,80.38
2022-10-25T03:28:30.175Z,80.66
2022-10-25T03:30:59.988Z,80.96
2022-10-25T03:33:28.066Z,81.08
2022-10-25T03:35:56.307Z,81.13
2022-10-25T03:38:24.451Z,81.07
2022-10-25T03:40:53.789Z,80.98
2022-10-25T03:45:54.946Z,81.25
2022-10-25T03:48:23.013Z,81.45
2022-10-25T03:50:50.998Z,81.64
2022-10-25T03:53:18.963Z,81.75
2022-10-25T03:55:46.823Z,81.76
2022-10-25T03:58:14.802Z,81.69
2022-10-25T04:00:42.819Z,81.76
2022-10-25T04:03:11.654Z,81.79
2022-10-25T04:05:39.626Z,81.75
2022-10-25T04:08:08.031Z,81.76
2022-10-25T04:10:36.076Z,81.82
2022-10-25T04:13:04.252Z,81.86
2022-10-25T04:15:32.430Z,81.76
2022-10-25T04:18:00.594Z,81.78
2022-10-25T04:20:28.675Z,81.92
2022-10-25T04:22:57.672Z,82.13
2022-10-25T04:25:27.265Z,82.21
2022-10-25T04:27:56.265Z,82.50
2022-10-25T04:30:24.180Z,82.72
2022-10-25T04:32:52.644Z,82.93
2022-10-25T04:35:21.190Z,82.96
2022-10-25T04:37:50.284Z,83.18
2022-10-25T04:40:22.543Z,83.29
2022-10-25T04:42:53.860Z,83.49
2022-10-25T04:45:21.886Z,83.57
2022-10-25T04:47:49.748Z,83.51
2022-10-25T04:50:17.812Z,83.98
2022-10-25T04:52:46.055Z,84.33
2022-10-25T04:55:14.366Z,84.29
2022-10-25T04:57:42.343Z,84.16
2022-10-25T05:00:11.115Z,83.91
2022-10-25T05:02:39.077Z,84.39
2022-10-25T05:05:07.370Z,84.71
2022-10-25T05:07:35.655Z,84.77
2022-10-25T05:10:03.829Z,84.85
2022-10-25T05:12:31.859Z,84.84
2022-10-25T05:14:59.872Z,84.90
2022-10-25T05:17:29.166Z,84.86
2022-10-25T05:19:57.087Z,85.06
2022-10-25T05:22:25.725Z,85.24
2022-10-25T05:24:53.688Z,85.11
2022-10-25T05:27:22.101Z,84.85
2022-10-25T05:29:49.995Z,85.18
2022-10-25T05:32:17.913Z,85.18
2022-10-25T05:34:45.882Z,85.17
2022-10-25T05:37:14.588Z,85.41
2022-10-25T05:39:42.641Z,85.60
2022-10-25T05:42:10.715Z,85.74
2022-10-25T05:44:38.783Z,85.81
2022-10-25T05:47:06.805Z,85.84
2022-10-25T05:49:39.735Z,85.91
2022-10-25T05:52:07.660Z,85.91
2022-10-25T05:54:36.116Z,85.75
2022-10-25T05:57:04.049Z,85.64
2022-10-25T05:59:32.196Z,85.40
2022-10-25T06:02:00.276Z,84.85
2022-10-25T06:04:28.472Z,84.71
2022-10-25T06:06:58.193Z,84.63
2022-10-25T06:09:26.075Z,84.57
2022-10-25T06:11:54.334Z,84.42
2022-10-25T06:14:22.303Z,84.44
2022-10-25T06:16:50.683Z,84.63
2022-10-25T06:19:18.579Z,84.57
2022-10-25T06:21:47.132Z,84.38
2022-10-25T06:24:15.108Z,84.28
2022-10-25T06:26:43.146Z,84.30
2022-10-25T06:29:11.087Z,84.00
2022-10-25T06:31:39.014Z,84.02
2022-10-25T06:34:07.196Z,84.15
2022-10-25T06:36:35.153Z,83.89
2022-10-25T06:39:06.687Z,83.81
2022-10-25T06:41:38.996Z,84.29
2022-10-25T06:44:08.692Z,84.34
2022-10-25T06:49:27.881Z,84.51
2022-10-25T06:51:56.353Z,84.61
2022-10-25T06:54:25.788Z,84.59
2022-10-25T06:56:54.233Z,84.56
2022-10-25T06:59:22.305Z,84.90
2022-10-25T07:01:50.605Z,84.70
2022-10-25T07:04:18.779Z,84.61
2022-10-25T07:06:49.965Z,84.66
2022-10-25T07:09:20.750Z,84.50
2022-10-25T07:11:48.705Z,84.44
2022-10-25T07:14:17.248Z,84.59
2022-10-25T07:16:45.077Z,84.61
2022-10-25T07:19:12.983Z,84.54
2022-10-25T07:21:41.608Z,84.68
2022-10-25T07:24:11.335Z,84.66
2022-10-25T07:26:40.629Z,84.45
2022-10-25T07:29:08.869Z,84.24
2022-10-25T07:31:41.046Z,83.59
2022-10-25T07:34:12.121Z,83.35
2022-10-25T07:36:40.856Z,83.20
2022-10-25T07:39:08.977Z,83.23
2022-10-25T07:41:37.274Z,83.15
2022-10-25T07:44:05.315Z,82.74
2022-10-25T07:46:33.491Z,82.60
2022-10-25T07:49:01.650Z,82.37
2022-10-25T07:51:29.555Z,82.21
2022-10-25T07:53:57.616Z,82.26
2022-10-25T07:56:25.800Z,82.31
2022-10-25T07:58:53.849Z,82.19
2022-10-25T08:01:24.593Z,82.06
2022-10-25T08:03:55.039Z,81.84
2022-10-25T08:06:25.339Z,81.85
2022-10-25T08:08:54.341Z,81.72
2022-10-25T08:11:22.427Z,81.77
2022-10-25T08:13:50.808Z,81.97
2022-10-25T08:16:19.067Z,81.58
2022-10-25T08:18:47.289Z,81.45
2022-10-25T08:21:15.718Z,81.54
2022-10-25T08:23:43.785Z,81.52
2022-10-25T08:26:11.766Z,81.39
2022-10-25T08:28:40.058Z,81.41
2022-10-25T08:31:08.728Z,81.59
2022-10-25T08:33:37.480Z,81.07
2022-10-25T08:36:05.794Z,80.34
2022-10-25T08:38:33.959Z,80.23
2022-10-25T08:41:06.134Z,79.87
2022-10-25T08:43:43.438Z,79.28
2022-10-25T08:46:27.790Z,78.42
2022-10-25T08:49:53.511Z,77.45
2022-10-25T08:52:38.163Z,76.90
2022-10-25T08:55:15.659Z,76.76
2022-10-25T08:57:47.529Z,76.85
2022-10-25T09:00:21.642Z,76.40
2022-10-25T09:02:54.303Z,76.04
2022-10-25T09:05:34.794Z,76.13
2022-10-25T09:08:15.856Z,76.23
2022-10-25T09:10:57.645Z,76.46
2022-10-25T09:13:31.681Z,76.48
2022-10-25T09:16:29.014Z,76.58
2022-10-25T09:18:57.819Z,76.74
2022-10-25T09:21:41.136Z,76.87
2022-10-25T09:24:22.023Z,76.87
2022-10-25T09:26:59.691Z,76.75
2022-10-25T09:29:46.477Z,76.64
2022-10-25T09:32:34.040Z,76.52
2022-10-25T09:35:04.620Z,76.60
2022-10-25T09:37:42.275Z,76.88
2022-10-25T09:40:18.376Z,77.01
2022-10-25T09:42:59.274Z,77.09
2022-10-25T09:45:42.531Z,77.32
2022-10-25T09:48:29.271Z,77.57
2022-10-25T09:51:24.605Z,77.84
2022-10-25T09:53:54.543Z,77.70
2022-10-25T09:56:22.850Z,77.98
2022-10-25T09:58:50.810Z,78.14
2022-10-25T10:01:25.986Z,78.92
2022-10-25T10:04:01.507Z,79.76
2022-10-25T10:06:39.288Z,79.80
2022-10-25T10:09:12.073Z,79.34
2022-10-25T10:11:42.403Z,79.22
2022-10-25T10:14:25.941Z,79.07
2022-10-25T10:16:58.363Z,79.23
2022-10-25T10:19:30.228Z,78.96
2022-10-25T10:22:06.676Z,78.53
2022-10-25T10:24:43.963Z,78.00
2022-10-25T10:27:20.758Z,77.58
2022-10-25T10:30:02.591Z,77.35
2022-10-25T10:32:36.264Z,77.32
2022-10-25T10:35:07.915Z,77.40
2022-10-25T10:37:38.012Z,77.33
2022-10-25T10:40:09.114Z,77.43
2022-10-25T10:42:41.423Z,77.48
2022-10-25T10:45:09.357Z,77.78
2022-10-25T10:47:49.939Z,77.93
2022-10-25T10:50:21.472Z,78.03
2022-10-25T10:52:59.978Z,78.31
2022-10-25T10:55:32.774Z,78.33
2022-10-25T10:58:25.236Z,78.52
2022-10-25T11:00:56.066Z,78.21
2022-10-25T11:03:36.690Z,78.45
2022-10-25T11:06:26.500Z,78.19
2022-10-25T11:09:25.601Z,78.16
2022-10-25T11:12:23.267Z,78.08
2022-10-25T11:14:51.235Z,77.86
2022-10-25T11:17:32.367Z,77.86
2022-10-25T11:20:18.891Z,77.74
2022-10-25T11:25:34.121Z,77.91
2022-10-25T11:28:32.399Z,77.74
2022-10-25T11:31:06.517Z,77.71
2022-10-25T11:33:59.985Z,77.60
2022-10-25T11:37:03.955Z,77.51
2022-10-25T11:39:48.550Z,77.55
2022-10-25T11:42:54.722Z,77.89
2022-10-25T11:45:34.741Z,77.63
2022-10-25T11:48:18.864Z,77.66
2022-10-25T11:51:36.547Z,77.90
2022-10-25T11:54:30.123Z,77.61
2022-10-25T11:57:13.044Z,77.81
2022-10-25T11:59:53.769Z,77.82
2022-10-25T12:02:40.264Z,77.41
2022-10-25T12:05:33.166Z,77.27
2022-10-25T12:08:36.667Z,77.15
2022-10-25T12:11:13.768Z,77.08
2022-10-25T12:13:49.365Z,76.82
2022-10-25T12:16:20.202Z,76.70
2022-10-25T12:19:24.734Z,76.85
2022-10-25T12:22:06.638Z,76.83
2022-10-25T12:24:41.393Z,76.93
2022-10-25T12:27:11.722Z,77.02
2022-10-25T12:29:48.803Z,76.56
2022-10-25T12:32:41.700Z,76.44
2022-10-25T12:35:23.346Z,75.55
2022-10-25T12:38:01.344Z,74.78
2022-10-25T12:40:29.834Z,74.56
2022-10-25T12:43:23.781Z,74.29
2022-10-25T12:46:15.115Z,74.02
2022-10-25T12:48:53.229Z,74.05
2022-10-25T12:51:40.046Z,73.94
2022-10-25T12:54:23.196Z,73.53
2022-10-25T12:57:03.537Z,73.61
2022-10-25T13:00:15.033Z,73.34
2022-10-25T13:03:23.646Z,73.12
2022-10-25T13:05:54.606Z,72.98
2022-10-25T13:08:25.625Z,73.06
2022-10-25T13:11:00.764Z,73.20
2022-10-25T13:13:33.778Z,73.56
2022-10-25T13:16:04.876Z,73.49
2022-10-25T13:18:32.768Z,73.53
2022-10-25T13:21:02.380Z,72.71
2022-10-25T13:23:42.734Z,73.19
2022-10-25T13:26:14.081Z,73.51
2022-10-25T13:28:46.775Z,73.25
2022-10-25T13:31:36.686Z,72.98
2022-10-25T13:34:13.931Z,72.42
2022-10-25T13:36:54.921Z,72.59
2022-10-25T13:39:33.771Z,72.72
2022-10-25T13:42:33.142Z,72.80
2022-10-25T13:45:04.113Z,72.80
2022-10-25T13:47:46.578Z,72.79
2022-10-25T13:50:33.415Z,73.51
2022-10-25T13:53:05.497Z,73.10
2022-10-25T13:55:44.690Z,73.00
2022-10-25T13:58:32.283Z,73.00
2022-10-25T14:01:16.269Z,72.82
2022-10-25T14:04:02.778Z,72.69
2022-10-25T14:06:33.974Z,72.64
2022-10-25T14:09:27.290Z,72.70
2022-10-25T14:12:01.299Z,72.86
2022-10-25T14:14:41.666Z,72.94
2022-10-25T14:17:16.626Z,73.12
2022-10-25T14:19:51.416Z,73.25
2022-10-25T14:22:43.824Z,73.33
2022-10-25T14:25:17.994Z,73.14
2022-10-25T14:27:46.349Z,73.30
2022-10-25T14:30:20.374Z,73.85
2022-10-25T14:32:54.281Z,74.15
2022-10-25T14:35:24.295Z,74.28
2022-10-25T14:37:52.468Z,74.41
2022-10-25T14:40:24.551Z,74.63
2022-10-25T14:42:56.516Z,74.53
2022-10-25T14:45:26.949Z,74.56
2022-10-25T14:47:55.138Z,74.98
2022-10-25T14:50:25.748Z,75.37
2022-10-25T14:52:56.953Z,75.57
2022-10-25T14:55:31.434Z,75.47
2022-10-25T14:58:03.096Z,75.24
2022-10-25T15:00:31.420Z,75.43
2022-10-25T15:03:04.351Z,75.61
2022-10-25T15:05:32.340Z,75.69
2022-10-25T15:08:01.075Z,75.77
2022-10-25T15:10:48.753Z,75.81
2022-10-25T15:13:50.667Z,75.92
2022-10-25T15:16:36.632Z,75.94
2022-10-25T15:19:04.481Z,75.86
2022-10-25T15:21:44.369Z,75.91
2022-10-25T15:24:19.244Z,76.04
2022-10-25T15:27:07.973Z,76.58
2022-10-25T15:29:39.066Z,76.57
2022-10-25T15:32:20.670Z,76.54
2022-10-25T15:34:59.140Z,76.58
2022-10-25T15:37:29.180Z,76.62
2022-10-25T15:40:05.377Z,76.58
2022-10-25T15:42:35.903Z,76.51
2022-10-25T15:45:04.782Z,76.67
2022-10-25T15:47:35.652Z,76.83
2022-10-25T15:50:12.834Z,76.77
2022-10-25T15:52:41.503Z,77.42
2022-10-25T15:55:20.528Z,77.47
2022-10-25T15:57:48.870Z,77.71
2022-10-25T16:00:22.850Z,78.29
2022-10-25T16:02:54.058Z,78.29
2022-10-25T16:05:25.932Z,78.64
2022-10-25T16:07:54.500Z,78.68
2022-10-25T16:10:24.519Z,78.44
2022-10-25T16:12:59.570Z,78.50
2022-10-25T16:15:28.185Z,78.74
2022-10-25T16:17:56.219Z,78.60
2022-10-25T16:20:27.115Z,78.66
2022-10-25T16:22:56.047Z,79.05
2022-10-25T16:25:30.560Z,79.28
2022-10-25T16:28:01.768Z,79.62
2022-10-25T16:30:38.336Z,80.00
2022-10-25T16:33:09.047Z,80.44
2022-10-25T16:35:37.289Z,80.32
2022-10-25T16:38:06.818Z,80.23
2022-10-25T16:40:35.226Z,80.47
2022-10-25T16:43:03.553Z,80.53
2022-10-25T16:45:36.994Z,80.44
2022-10-25T16:48:05.925Z,80.25
2022-10-25T16:50:34.519Z,80.33
2022-10-25T16:53:06.879Z,80.10
2022-10-25T16:55:35.802Z,79.90
2022-10-25T16:58:03.774Z,79.82
2022-10-25T17:00:36.127Z,79.39
2022-10-25T17:03:04.259Z,79.13
2022-10-25T17:05:36.268Z,78.88
2022-10-25T17:08:04.240Z,78.69
2022-10-25T17:10:32.415Z,78.65
2022-10-25T17:13:03.912Z,78.64
2022-10-25T17:15:32.558Z,78.70
2022-10-25T17:18:00.631Z,79.01
2022-10-25T17:20:29.107Z,79.02
2022-10-25T17:22:57.763Z,79.30
2022-10-25T17:25:25.857Z,79.42
2022-10-25T17:27:54.556Z,79.47
2022-10-25T17:30:22.523Z,79.14
2022-10-25T17:32:50.798Z,78.82
2022-10-25T17:35:28.568Z,79.14
2022-10-25T17:37:58.003Z,79.83
2022-10-25T17:40:26.343Z,80.33
2022-10-25T17:42:55.782Z,80.31
2022-10-25T17:45:23.651Z,80.44
2022-10-25T17:47:51.459Z,80.63
2022-10-25T17:50:21.123Z,80.47
2022-10-25T17:52:52.264Z,80.36
2022-10-25T17:55:20.440Z,80.31
2022-10-25T17:57:49.039Z,80.09
2022-10-25T18:00:17.405Z,80.06
2022-10-25T18:02:51.213Z,80.07
2022-10-25T18:05:21.785Z,80.11
2022-10-25T18:07:52.985Z,80.50
2022-10-25T18:10:21.678Z,80.75
2022-10-25T18:12:50.806Z,80.94
2022-10-25T18:15:19.146Z,81.11
2022-10-25T18:17:47.702Z,81.18
2022-10-25T18:20:16.018Z,80.97
2022-10-25T18:22:44.694Z,80.91
2022-10-25T18:25:12.879Z,80.80
2022-10-25T18:27:40.840Z,80.90
2022-10-25T18:30:09.848Z,80.74
2022-10-25T18:32:38.316Z,80.52
2022-10-25T18:35:06.703Z,80.89
2022-10-25T18:37:34.618Z,80.85
2022-10-25T18:40:02.752Z,80.73
2022-10-25T18:42:31.221Z,81.30
2022-10-25T18:44:59.142Z,81.52
2022-10-25T18:47:27.274Z,81.92
2022-10-25T18:49:55.228Z,82.01
2022-10-25T18:52:23.514Z,80.82
2022-10-25T18:54:53.584Z,80.58
2022-10-25T18:57:21.698Z,80.81
2022-10-25T18:59:53.210Z,80.64
2022-10-25T19:02:23.045Z,80.31
2022-10-25T19:04:51.183Z,80.12
2022-10-25T19:07:19.305Z,80.35
2022-10-25T19:09:47.281Z,80.79
2022-10-25T19:12:15.143Z,80.48
2022-10-25T19:14:43.494Z,80.29
2022-10-25T19:17:12.350Z,80.38
2022-10-25T19:19:40.239Z,80.49
2022-10-25T19:22:08.557Z,80.18
2022-10-25T19:24:38.480Z,79.62
2022-10-25T19:27:06.635Z,79.13
2022-10-25T19:29:34.928Z,79.10
2022-10-25T19:32:03.045Z,79.27
2022-10-25T19:34:31.273Z,79.34
2022-10-25T19:37:04.478Z,79.10
2022-10-25T19:39:32.646Z,79.07
2022-10-25T19:42:00.644Z,79.03
2022-10-25T19:44:28.687Z,78.94
2022-10-25T19:46:56.865Z,78.88
2022-10-25T19:49:25.043Z,78.97
2022-10-25T19:51:53.027Z,79.21
2022-10-25T19:54:20.978Z,79.88
2022-10-25T19:56:49.056Z,80.66
2022-10-25T19:59:17.179Z,80.69
2022-10-25T20:01:47.719Z,80.88
2022-10-25T20:04:19.158Z,80.88
2022-10-25T20:06:47.308Z,80.91
2022-10-25T20:09:15.545Z,80.87
2022-10-25T20:11:44.051Z,80.55
2022-10-25T20:14:12.525Z,80.32
2022-10-25T20:16:40.514Z,81.10
2022-10-25T20:19:15.331Z,81.53
2022-10-25T20:21:43.386Z,81.32
2022-10-25T20:24:12.280Z,81.22
2022-10-25T20:26:42.058Z,80.88
2022-10-25T20:29:18.653Z,80.50
2022-10-25T20:31:51.205Z,80.30
2022-10-25T20:34:20.643Z,80.18
2022-10-25T20:36:49.636Z,80.02
2022-10-25T20:39:18.027Z,79.82
2022-10-25T20:41:46.104Z,79.91
2022-10-25T20:44:14.915Z,80.34
2022-10-25T20:46:43.533Z,80.82
2022-10-25T20:49:11.731Z,81.24
2022-10-25T20:51:39.809Z,81.23
2022-10-25T20:54:09.650Z,81.32
2022-10-25T20:56:39.680Z,81.48
2022-10-25T20:59:08.926Z,81.94
2022-10-25T21:01:37.957Z,82.07
2022-10-25T21:04:06.007Z,82.31
2022-10-25T21:06:33.928Z,82.05
2022-10-25T21:09:02.409Z,81.67
2022-10-25T21:11:30.588Z,81.45
2022-10-25T21:13:58.389Z,81.29
2022-10-25T21:16:26.680Z,81.29
2022-10-25T21:18:54.658Z,81.09
2022-10-25T21:21:22.918Z,80.80
2022-10-25T21:23:55.668Z,80.94
2022-10-25T21:26:24.255Z,81.28
2022-10-25T21:28:52.781Z,81.38
2022-10-25T21:31:20.842Z,81.40
2022-10-25T21:33:51.117Z,81.34
2022-10-25T21:36:21.083Z,81.10
2022-10-25T21:38:49.415Z,81.09
2022-10-25T21:41:26.914Z,81.24
2022-10-25T21:43:57.047Z,81.23
2022-10-25T21:46:27.501Z,81.37
2022-10-25T21:48:55.982Z,81.51
2022-10-25T21:51:24.771Z,81.63
2022-10-25T21:53:55.290Z,81.74
2022-10-25T21:56:30.785Z,81.80
2022-10-25T21:59:00.477Z,82.09
2022-10-25T22:01:30.815Z,81.88
2022-10-25T22:03:59.569Z,81.48
2022-10-25T22:06:28.255Z,81.30
2022-10-25T22:08:57.803Z,81.47
2022-10-25T22:11:28.508Z,81.67
2022-10-25T22:13:59.084Z,81.88
2022-10-25T22:16:27.396Z,82.04
2022-10-25T22:18:58.914Z,82.15
2022-10-25T22:21:29.595Z,82.30
2022-10-25T22:23:58.374Z,82.10
2022-10-25T22:26:26.458Z,81.94
2022-10-25T22:28:56.673Z,82.02
2022-10-25T22:31:26.172Z,81.88
2022-10-25T22:33:59.492Z,81.64
2022-10-25T22:36:33.273Z,81.45
2022-10-25T22:39:02.275Z,81.38
2022-10-25T22:41:31.092Z,81.43
2022-10-25T22:43:59.845Z,81.30
2022-10-25T22:46:31.399Z,81.25
2022-10-25T22:49:00.650Z,81.14
2022-10-25T22:51:28.887Z,81.67
2022-10-25T22:53:56.944Z,82.39
2022-10-25T22:56:27.675Z,83.38
2022-10-25T22:58:57.816Z,83.97
2022-10-25T23:01:28.338Z,84.01
2022-10-25T23:03:57.988Z,84.12
2022-10-25T23:06:28.707Z,84.14
2022-10-25T23:08:58.625Z,84.14
2022-10-25T23:11:29.291Z,84.18
2022-10-25T23:13:58.330Z,84.28
2022-10-25T23:16:27.355Z,84.40
2022-10-25T23:18:55.595Z,84.16
2022-10-25T23:21:25.896Z,83.85
2022-10-25T23:23:56.038Z,83.47
2022-10-25T23:26:28.206Z,83.39
2022-10-25T23:28:57.099Z,83.71
2022-10-25T23:31:25.471Z,83.87
2022-10-25T23:33:55.999Z,84.15
2022-10-25T23:36:26.941Z,84.44
2022-10-25T23:38:56.320Z,84.48
2022-10-25T23:41:24.730Z,84.28
2022-10-25T23:43:52.760Z,84.03
2022-10-25T23:46:20.691Z,83.51
2022-10-25T23:48:48.783Z,83.09
2022-10-25T23:51:18.464Z,82.76
2022-10-25T23:53:46.522Z,82.50
2022-10-25T23:56:14.789Z,82.24
2022-10-25T23:58:43.048Z,81.92
